Portada
METAR-TAF:

METAR-TAF

Aeroports :

Çorlu, Turquia

latitud: 41-08N, longitud: 027-55E, altitud: 173 m

Observació

L'informe es va fer fa 46 minuts, a les 14:50 UTC
Vent 1 kt del Est/Sud-Est
Temperatura 8°C
Humitat 81%
Pressió 1014 hPa
Visibilitat 10 km o més
sense núvols per sota de 1500 mi sense presència de cumulonimbus.

METAR: LTBU 091450Z 12001KT CAVOK 08/05 Q1014 RMK RWY22 16004KT

Hora: 18:36 (15:36 UTC)

Pronòstic

L'informe es va fer fa 4 hores i 56 minuts, a les 10:40 UTC
Pronòstic vàlid del 09 a les 12 UTC al 10 a les 12 UTC
Vent 2 kt amb direcció variable
Visibilitat 10 km o més
sense núvols per sota de 1500 mi sense presència de cumulonimbus.

TAF: LTBU 091040Z 0912/1012 VRB02KT CAVOK

Observacions i pronòstics meteorològics de més de 4000 aeroports (METAR i TAF).

Les estacions disponibles són els punts grocs i vermells al mapa.

Posi el ratolí al punt desitjat per veure el nom de l'estació.

Feu clic per veure les observacions i els pronòstics meteorològics.

Per canviar el mapa: feu clic els botons verds amb una creu de color negre per apropar; al botó verd amb un guió per allunyar la imatge; o en les fletxes verdes per a mapes adjacents.


METAR-TAF: